sensor_id;sensor_type;location;lat;lon;timestamp;P1;durP1;ratioP1;P2;durP2;ratioP2
18822;SDS011;9540;51.550;7.980;2022-10-03T00:01:02;11.88;;;3.20;;
18822;SDS011;9540;51.550;7.980;2022-10-03T00:03:42;15.77;;;3.03;;
18822;SDS011;9540;51.550;7.980;2022-10-03T00:06:21;9.02;;;2.75;;
18822;SDS011;9540;51.550;7.980;2022-10-03T00:09:00;15.50;;;2.55;;
18822;SDS011;9540;51.550;7.980;2022-10-03T00:11:47;15.90;;;3.20;;
18822;SDS011;9540;51.550;7.980;2022-10-03T00:14:23;16.42;;;2.95;;
18822;SDS011;9540;51.550;7.980;2022-10-03T00:17:01;20.38;;;3.83;;
18822;SDS011;9540;51.550;7.980;2022-10-03T00:19:37;14.52;;;2.83;;
18822;SDS011;9540;51.550;7.980;2022-10-03T00:22:14;15.82;;;3.63;;
18822;SDS011;9540;51.550;7.980;2022-10-03T00:24:51;18.60;;;3.63;;
18822;SDS011;9540;51.550;7.980;2022-10-03T00:27:31;15.85;;;3.55;;
18822;SDS011;9540;51.550;7.980;2022-10-03T00:30:04;19.55;;;3.63;;
18822;SDS011;9540;51.550;7.980;2022-10-03T00:32:44;14.38;;;3.22;;
18822;SDS011;9540;51.550;7.980;2022-10-03T00:35:32;18.17;;;3.72;;
18822;SDS011;9540;51.550;7.980;2022-10-03T00:38:14;18.27;;;4.00;;
18822;SDS011;9540;51.550;7.980;2022-10-03T00:41:12;12.60;;;3.55;;
18822;SDS011;9540;51.550;7.980;2022-10-03T00:44:02;21.27;;;3.10;;
18822;SDS011;9540;51.550;7.980;2022-10-03T00:47:04;16.92;;;2.90;;
18822;SDS011;9540;51.550;7.980;2022-10-03T00:55:45;12.98;;;3.22;;
18822;SDS011;9540;51.550;7.980;2022-10-03T00:58:26;17.23;;;3.45;;
18822;SDS011;9540;51.550;7.980;2022-10-03T01:01:05;15.25;;;2.70;;
18822;SDS011;9540;51.550;7.980;2022-10-03T01:03:49;9.35;;;3.45;;
18822;SDS011;9540;51.550;7.980;2022-10-03T01:06:26;16.23;;;3.53;;
18822;SDS011;9540;51.550;7.980;2022-10-03T01:09:05;16.10;;;3.67;;
18822;SDS011;9540;51.550;7.980;2022-10-03T01:12:07;20.42;;;4.25;;
18822;SDS011;9540;51.550;7.980;2022-10-03T01:15:08;17.23;;;3.83;;
18822;SDS011;9540;51.550;7.980;2022-10-03T01:17:46;16.15;;;3.33;;
18822;SDS011;9540;51.550;7.980;2022-10-03T01:20:26;13.05;;;3.78;;
18822;SDS011;9540;51.550;7.980;2022-10-03T01:25:58;15.52;;;3.78;;
18822;SDS011;9540;51.550;7.980;2022-10-03T01:28:41;14.98;;;3.58;;
18822;SDS011;9540;51.550;7.980;2022-10-03T01:31:32;19.10;;;3.78;;
18822;SDS011;9540;51.550;7.980;2022-10-03T01:34:09;23.15;;;3.85;;
18822;SDS011;9540;51.550;7.980;2022-10-03T01:36:42;19.55;;;4.25;;
18822;SDS011;9540;51.550;7.980;2022-10-03T01:39:19;21.50;;;4.45;;
18822;SDS011;9540;51.550;7.980;2022-10-03T01:41:53;21.10;;;4.15;;
18822;SDS011;9540;51.550;7.980;2022-10-03T01:44:27;18.70;;;3.97;;
18822;SDS011;9540;51.550;7.980;2022-10-03T01:47:06;16.33;;;4.20;;
18822;SDS011;9540;51.550;7.980;2022-10-03T01:49:41;17.10;;;4.10;;
18822;SDS011;9540;51.550;7.980;2022-10-03T01:52:16;15.00;;;4.25;;
18822;SDS011;9540;51.550;7.980;2022-10-03T01:54:49;21.67;;;4.35;;
18822;SDS011;9540;51.550;7.980;2022-10-03T01:57:24;10.52;;;3.22;;
18822;SDS011;9540;51.550;7.980;2022-10-03T02:00:04;16.27;;;4.30;;
18822;SDS011;9540;51.550;7.980;2022-10-03T02:02:35;15.90;;;3.97;;
18822;SDS011;9540;51.550;7.980;2022-10-03T02:05:08;14.43;;;3.58;;
18822;SDS011;9540;51.550;7.980;2022-10-03T02:07:42;24.55;;;4.53;;
18822;SDS011;9540;51.550;7.980;2022-10-03T02:10:18;21.52;;;4.50;;
18822;SDS011;9540;51.550;7.980;2022-10-03T02:12:55;25.42;;;4.85;;
18822;SDS011;9540;51.550;7.980;2022-10-03T02:15:31;18.58;;;4.53;;
18822;SDS011;9540;51.550;7.980;2022-10-03T02:18:08;12.88;;;4.43;;
18822;SDS011;9540;51.550;7.980;2022-10-03T02:20:41;17.15;;;5.28;;
18822;SDS011;9540;51.550;7.980;2022-10-03T02:23:22;19.33;;;5.32;;
18822;SDS011;9540;51.550;7.980;2022-10-03T02:25:57;17.83;;;5.20;;
18822;SDS011;9540;51.550;7.980;2022-10-03T02:31:42;16.80;;;4.80;;
18822;SDS011;9540;51.550;7.980;2022-10-03T02:34:24;15.48;;;5.28;;
18822;SDS011;9540;51.550;7.980;2022-10-03T02:40:35;9.93;;;3.88;;
18822;SDS011;9540;51.550;7.980;2022-10-03T02:43:26;11.27;;;4.35;;
18822;SDS011;9540;51.550;7.980;2022-10-03T02:46:25;13.23;;;4.57;;
18822;SDS011;9540;51.550;7.980;2022-10-03T02:56:18;20.73;;;5.28;;
18822;SDS011;9540;51.550;7.980;2022-10-03T03:02:21;20.40;;;4.70;;
18822;SDS011;9540;51.550;7.980;2022-10-03T03:05:32;23.70;;;4.45;;
18822;SDS011;9540;51.550;7.980;2022-10-03T03:08:31;16.55;;;4.40;;
18822;SDS011;9540;51.550;7.980;2022-10-03T03:11:25;17.02;;;4.85;;
18822;SDS011;9540;51.550;7.980;2022-10-03T03:17:16;17.42;;;4.00;;
18822;SDS011;9540;51.550;7.980;2022-10-03T03:19:57;15.98;;;5.45;;
18822;SDS011;9540;51.550;7.980;2022-10-03T03:22:47;11.48;;;4.00;;
18822;SDS011;9540;51.550;7.980;2022-10-03T03:25:31;18.15;;;4.55;;
18822;SDS011;9540;51.550;7.980;2022-10-03T03:28:10;17.08;;;4.43;;
18822;SDS011;9540;51.550;7.980;2022-10-03T03:30:47;11.57;;;4.18;;
18822;SDS011;9540;51.550;7.980;2022-10-03T03:33:30;15.85;;;4.22;;
18822;SDS011;9540;51.550;7.980;2022-10-03T03:36:04;23.33;;;4.25;;
18822;SDS011;9540;51.550;7.980;2022-10-03T03:38:41;18.85;;;4.75;;
18822;SDS011;9540;51.550;7.980;2022-10-03T03:41:20;18.23;;;3.75;;
18822;SDS011;9540;51.550;7.980;2022-10-03T03:44:18;17.60;;;4.53;;
18822;SDS011;9540;51.550;7.980;2022-10-03T03:47:11;16.92;;;5.03;;
18822;SDS011;9540;51.550;7.980;2022-10-03T03:50:00;27.17;;;5.45;;
18822;SDS011;9540;51.550;7.980;2022-10-03T03:52:53;13.98;;;4.68;;
18822;SDS011;9540;51.550;7.980;2022-10-03T03:55:50;16.77;;;4.15;;
18822;SDS011;9540;51.550;7.980;2022-10-03T03:58:42;20.23;;;4.63;;
18822;SDS011;9540;51.550;7.980;2022-10-03T04:01:24;16.50;;;4.35;;
18822;SDS011;9540;51.550;7.980;2022-10-03T04:04:05;18.58;;;4.85;;
18822;SDS011;9540;51.550;7.980;2022-10-03T04:06:46;18.38;;;4.88;;
18822;SDS011;9540;51.550;7.980;2022-10-03T04:09:28;15.73;;;4.63;;
18822;SDS011;9540;51.550;7.980;2022-10-03T04:12:26;25.10;;;5.18;;
18822;SDS011;9540;51.550;7.980;2022-10-03T04:15:11;21.80;;;6.10;;
18822;SDS011;9540;51.550;7.980;2022-10-03T04:18:03;21.75;;;4.63;;
18822;SDS011;9540;51.550;7.980;2022-10-03T04:21:23;19.70;;;4.68;;
18822;SDS011;9540;51.550;7.980;2022-10-03T04:24:13;22.77;;;5.45;;
18822;SDS011;9540;51.550;7.980;2022-10-03T04:27:10;14.98;;;4.53;;
18822;SDS011;9540;51.550;7.980;2022-10-03T04:29:50;23.98;;;6.35;;
18822;SDS011;9540;51.550;7.980;2022-10-03T04:32:36;21.90;;;5.72;;
18822;SDS011;9540;51.550;7.980;2022-10-03T04:35:24;17.92;;;5.10;;
18822;SDS011;9540;51.550;7.980;2022-10-03T04:38:09;22.95;;;5.20;;
18822;SDS011;9540;51.550;7.980;2022-10-03T04:40:44;19.63;;;4.45;;
18822;SDS011;9540;51.550;7.980;2022-10-03T04:43:23;23.40;;;5.40;;
18822;SDS011;9540;51.550;7.980;2022-10-03T04:46:09;26.50;;;6.05;;
18822;SDS011;9540;51.550;7.980;2022-10-03T04:48:45;12.52;;;4.72;;
18822;SDS011;9540;51.550;7.980;2022-10-03T04:51:19;24.52;;;4.80;;
18822;SDS011;9540;51.550;7.980;2022-10-03T04:53:54;21.70;;;5.75;;
18822;SDS011;9540;51.550;7.980;2022-10-03T04:56:32;19.70;;;4.43;;
18822;SDS011;9540;51.550;7.980;2022-10-03T04:59:09;21.20;;;5.53;;
18822;SDS011;9540;51.550;7.980;2022-10-03T05:01:51;17.80;;;4.75;;
18822;SDS011;9540;51.550;7.980;2022-10-03T05:04:23;17.23;;;5.35;;
18822;SDS011;9540;51.550;7.980;2022-10-03T05:06:58;15.25;;;4.38;;
18822;SDS011;9540;51.550;7.980;2022-10-03T05:09:34;14.70;;;4.88;;
18822;SDS011;9540;51.550;7.980;2022-10-03T05:12:11;15.05;;;4.75;;
18822;SDS011;9540;51.550;7.980;2022-10-03T05:14:56;15.13;;;5.63;;
18822;SDS011;9540;51.550;7.980;2022-10-03T05:17:40;23.00;;;6.13;;
18822;SDS011;9540;51.550;7.980;2022-10-03T05:20:20;20.85;;;5.55;;
18822;SDS011;9540;51.550;7.980;2022-10-03T05:22:56;15.00;;;5.15;;
18822;SDS011;9540;51.550;7.980;2022-10-03T05:25:36;19.67;;;6.35;;
18822;SDS011;9540;51.550;7.980;2022-10-03T05:28:16;20.55;;;7.28;;
18822;SDS011;9540;51.550;7.980;2022-10-03T05:30:52;17.23;;;6.50;;
18822;SDS011;9540;51.550;7.980;2022-10-03T05:33:25;23.90;;;7.03;;
18822;SDS011;9540;51.550;7.980;2022-10-03T05:36:08;24.85;;;6.78;;
18822;SDS011;9540;51.550;7.980;2022-10-03T05:41:49;15.00;;;6.90;;
18822;SDS011;9540;51.550;7.980;2022-10-03T05:44:20;12.77;;;5.90;;
18822;SDS011;9540;51.550;7.980;2022-10-03T05:46:58;26.98;;;7.25;;
18822;SDS011;9540;51.550;7.980;2022-10-03T05:49:59;18.77;;;5.85;;
18822;SDS011;9540;51.550;7.980;2022-10-03T05:52:48;19.75;;;6.80;;
18822;SDS011;9540;51.550;7.980;2022-10-03T05:55:39;19.95;;;6.78;;
18822;SDS011;9540;51.550;7.980;2022-10-03T05:58:29;16.73;;;6.25;;
18822;SDS011;9540;51.550;7.980;2022-10-03T06:01:31;19.15;;;6.55;;
18822;SDS011;9540;51.550;7.980;2022-10-03T06:04:39;19.33;;;5.57;;
18822;SDS011;9540;51.550;7.980;2022-10-03T06:07:28;17.15;;;6.28;;
18822;SDS011;9540;51.550;7.980;2022-10-03T06:10:07;12.45;;;5.97;;
18822;SDS011;9540;51.550;7.980;2022-10-03T06:13:03;23.75;;;6.45;;
18822;SDS011;9540;51.550;7.980;2022-10-03T06:15:46;17.67;;;7.10;;
18822;SDS011;9540;51.550;7.980;2022-10-03T06:18:27;22.50;;;7.75;;
18822;SDS011;9540;51.550;7.980;2022-10-03T06:24:14;20.23;;;8.00;;
18822;SDS011;9540;51.550;7.980;2022-10-03T06:27:12;19.75;;;8.00;;
18822;SDS011;9540;51.550;7.980;2022-10-03T06:30:06;21.25;;;8.15;;
18822;SDS011;9540;51.550;7.980;2022-10-03T06:32:54;22.15;;;7.80;;
18822;SDS011;9540;51.550;7.980;2022-10-03T06:39:19;28.33;;;8.43;;
18822;SDS011;9540;51.550;7.980;2022-10-03T06:42:15;28.15;;;8.15;;
18822;SDS011;9540;51.550;7.980;2022-10-03T06:48:01;23.15;;;9.48;;
18822;SDS011;9540;51.550;7.980;2022-10-03T06:50:59;25.02;;;8.80;;
18822;SDS011;9540;51.550;7.980;2022-10-03T06:53:57;28.90;;;9.68;;
18822;SDS011;9540;51.550;7.980;2022-10-03T06:56:43;25.20;;;9.05;;
18822;SDS011;9540;51.550;7.980;2022-10-03T06:59:37;23.58;;;9.32;;
18822;SDS011;9540;51.550;7.980;2022-10-03T07:02:48;26.10;;;9.18;;
18822;SDS011;9540;51.550;7.980;2022-10-03T07:08:48;27.00;;;8.85;;
18822;SDS011;9540;51.550;7.980;2022-10-03T07:15:12;34.28;;;11.77;;
18822;SDS011;9540;51.550;7.980;2022-10-03T07:18:09;30.35;;;10.65;;
18822;SDS011;9540;51.550;7.980;2022-10-03T07:24:06;23.58;;;8.85;;
18822;SDS011;9540;51.550;7.980;2022-10-03T07:26:53;28.58;;;8.77;;
18822;SDS011;9540;51.550;7.980;2022-10-03T07:29:39;25.25;;;8.27;;
18822;SDS011;9540;51.550;7.980;2022-10-03T07:32:33;27.67;;;7.72;;
18822;SDS011;9540;51.550;7.980;2022-10-03T07:35:39;23.42;;;7.55;;
18822;SDS011;9540;51.550;7.980;2022-10-03T07:41:31;24.27;;;7.40;;
18822;SDS011;9540;51.550;7.980;2022-10-03T07:47:34;28.35;;;7.82;;
18822;SDS011;9540;51.550;7.980;2022-10-03T07:50:37;20.65;;;6.90;;
18822;SDS011;9540;51.550;7.980;2022-10-03T07:53:25;20.00;;;6.28;;
18822;SDS011;9540;51.550;7.980;2022-10-03T07:56:17;33.55;;;7.75;;
18822;SDS011;9540;51.550;7.980;2022-10-03T07:59:12;21.30;;;6.10;;
18822;SDS011;9540;51.550;7.980;2022-10-03T08:02:03;23.98;;;6.75;;
18822;SDS011;9540;51.550;7.980;2022-10-03T08:05:09;19.65;;;6.15;;
18822;SDS011;9540;51.550;7.980;2022-10-03T08:11:03;22.98;;;5.78;;
18822;SDS011;9540;51.550;7.980;2022-10-03T08:13:57;23.73;;;5.85;;
18822;SDS011;9540;51.550;7.980;2022-10-03T08:16:37;27.38;;;5.93;;
18822;SDS011;9540;51.550;7.980;2022-10-03T08:19:33;23.45;;;5.97;;
18822;SDS011;9540;51.550;7.980;2022-10-03T08:22:17;25.05;;;6.50;;
18822;SDS011;9540;51.550;7.980;2022-10-03T08:25:09;26.50;;;6.38;;
18822;SDS011;9540;51.550;7.980;2022-10-03T08:28:01;24.65;;;5.97;;
18822;SDS011;9540;51.550;7.980;2022-10-03T08:30:53;12.73;;;4.90;;
18822;SDS011;9540;51.550;7.980;2022-10-03T08:33:52;17.90;;;5.53;;
18822;SDS011;9540;51.550;7.980;2022-10-03T08:40:02;19.60;;;5.03;;
18822;SDS011;9540;51.550;7.980;2022-10-03T08:43:23;17.73;;;4.82;;
18822;SDS011;9540;51.550;7.980;2022-10-03T08:46:20;12.43;;;4.10;;
18822;SDS011;9540;51.550;7.980;2022-10-03T08:49:24;17.55;;;4.68;;
18822;SDS011;9540;51.550;7.980;2022-10-03T08:52:10;12.43;;;3.95;;
18822;SDS011;9540;51.550;7.980;2022-10-03T08:54:51;13.68;;;4.43;;
18822;SDS011;9540;51.550;7.980;2022-10-03T08:57:56;21.45;;;4.47;;
18822;SDS011;9540;51.550;7.980;2022-10-03T09:00:47;22.05;;;4.72;;
18822;SDS011;9540;51.550;7.980;2022-10-03T09:06:46;11.90;;;3.97;;
18822;SDS011;9540;51.550;7.980;2022-10-03T09:13:05;15.13;;;4.45;;
18822;SDS011;9540;51.550;7.980;2022-10-03T09:15:54;16.95;;;4.07;;
18822;SDS011;9540;51.550;7.980;2022-10-03T09:18:53;27.98;;;4.28;;
18822;SDS011;9540;51.550;7.980;2022-10-03T09:21:45;13.30;;;3.97;;
18822;SDS011;9540;51.550;7.980;2022-10-03T09:30:43;20.88;;;3.55;;
18822;SDS011;9540;51.550;7.980;2022-10-03T09:36:30;17.27;;;3.83;;
18822;SDS011;9540;51.550;7.980;2022-10-03T09:42:30;16.08;;;3.53;;
18822;SDS011;9540;51.550;7.980;2022-10-03T09:45:46;13.93;;;3.75;;
18822;SDS011;9540;51.550;7.980;2022-10-03T09:48:56;16.23;;;4.28;;
18822;SDS011;9540;51.550;7.980;2022-10-03T09:51:51;13.15;;;3.33;;
18822;SDS011;9540;51.550;7.980;2022-10-03T09:54:39;11.95;;;2.97;;
18822;SDS011;9540;51.550;7.980;2022-10-03T10:00:30;17.13;;;3.88;;
18822;SDS011;9540;51.550;7.980;2022-10-03T10:03:29;19.88;;;3.78;;
18822;SDS011;9540;51.550;7.980;2022-10-03T10:09:46;14.48;;;3.75;;
18822;SDS011;9540;51.550;7.980;2022-10-03T10:18:39;16.13;;;3.75;;
18822;SDS011;9540;51.550;7.980;2022-10-03T10:21:35;10.88;;;3.33;;
18822;SDS011;9540;51.550;7.980;2022-10-03T10:24:26;12.75;;;2.72;;
18822;SDS011;9540;51.550;7.980;2022-10-03T10:27:19;13.50;;;3.10;;
18822;SDS011;9540;51.550;7.980;2022-10-03T10:30:10;13.07;;;3.20;;
18822;SDS011;9540;51.550;7.980;2022-10-03T10:39:27;14.93;;;3.00;;
18822;SDS011;9540;51.550;7.980;2022-10-03T10:45:23;15.75;;;3.28;;
18822;SDS011;9540;51.550;7.980;2022-10-03T10:48:27;12.93;;;2.72;;
18822;SDS011;9540;51.550;7.980;2022-10-03T10:52:00;15.90;;;2.53;;
18822;SDS011;9540;51.550;7.980;2022-10-03T10:58:13;6.82;;;2.42;;
18822;SDS011;9540;51.550;7.980;2022-10-03T11:04:17;8.32;;;2.22;;
18822;SDS011;9540;51.550;7.980;2022-10-03T11:07:13;14.90;;;2.35;;
18822;SDS011;9540;51.550;7.980;2022-10-03T11:10:27;7.70;;;2.20;;
18822;SDS011;9540;51.550;7.980;2022-10-03T11:16:25;10.45;;;2.70;;
18822;SDS011;9540;51.550;7.980;2022-10-03T11:37:43;7.10;;;2.60;;
18822;SDS011;9540;51.550;7.980;2022-10-03T11:40:23;6.95;;;1.75;;
18822;SDS011;9540;51.550;7.980;2022-10-03T11:42:58;6.72;;;1.80;;
18822;SDS011;9540;51.550;7.980;2022-10-03T11:45:43;5.25;;;2.08;;
18822;SDS011;9540;51.550;7.980;2022-10-03T11:48:29;7.05;;;2.30;;
18822;SDS011;9540;51.550;7.980;2022-10-03T11:51:04;9.38;;;2.83;;
18822;SDS011;9540;51.550;7.980;2022-10-03T11:53:41;8.10;;;2.45;;
18822;SDS011;9540;51.550;7.980;2022-10-03T11:56:17;6.55;;;2.10;;
18822;SDS011;9540;51.550;7.980;2022-10-03T11:58:59;10.32;;;2.25;;
18822;SDS011;9540;51.550;7.980;2022-10-03T12:01:46;6.43;;;2.42;;
18822;SDS011;9540;51.550;7.980;2022-10-03T12:04:25;8.30;;;2.75;;
18822;SDS011;9540;51.550;7.980;2022-10-03T12:07:00;10.10;;;2.70;;
18822;SDS011;9540;51.550;7.980;2022-10-03T12:09:57;5.40;;;2.53;;
18822;SDS011;9540;51.550;7.980;2022-10-03T12:12:30;7.90;;;3.05;;
18822;SDS011;9540;51.550;7.980;2022-10-03T12:15:10;12.10;;;3.33;;
18822;SDS011;9540;51.550;7.980;2022-10-03T12:17:51;10.85;;;3.13;;
18822;SDS011;9540;51.550;7.980;2022-10-03T12:20:23;5.93;;;2.50;;
18822;SDS011;9540;51.550;7.980;2022-10-03T12:22:57;9.48;;;2.65;;
18822;SDS011;9540;51.550;7.980;2022-10-03T12:25:28;8.05;;;3.08;;
18822;SDS011;9540;51.550;7.980;2022-10-03T12:28:04;5.90;;;2.42;;
18822;SDS011;9540;51.550;7.980;2022-10-03T12:30:39;11.48;;;2.58;;
18822;SDS011;9540;51.550;7.980;2022-10-03T12:33:39;11.35;;;2.70;;
18822;SDS011;9540;51.550;7.980;2022-10-03T12:36:12;8.27;;;2.10;;
18822;SDS011;9540;51.550;7.980;2022-10-03T12:38:44;6.53;;;2.40;;
18822;SDS011;9540;51.550;7.980;2022-10-03T12:41:24;6.65;;;2.70;;
18822;SDS011;9540;51.550;7.980;2022-10-03T12:44:13;9.70;;;2.25;;
18822;SDS011;9540;51.550;7.980;2022-10-03T12:46:54;9.80;;;2.45;;
18822;SDS011;9540;51.550;7.980;2022-10-03T12:49:33;10.85;;;3.25;;
18822;SDS011;9540;51.550;7.980;2022-10-03T12:52:13;8.85;;;3.42;;
18822;SDS011;9540;51.550;7.980;2022-10-03T12:54:44;7.13;;;2.90;;
18822;SDS011;9540;51.550;7.980;2022-10-03T12:57:37;8.20;;;2.63;;
18822;SDS011;9540;51.550;7.980;2022-10-03T13:00:24;11.65;;;3.28;;
18822;SDS011;9540;51.550;7.980;2022-10-03T13:03:02;7.00;;;2.50;;
18822;SDS011;9540;51.550;7.980;2022-10-03T13:06:07;7.85;;;2.22;;
18822;SDS011;9540;51.550;7.980;2022-10-03T13:08:50;10.85;;;3.85;;
18822;SDS011;9540;51.550;7.980;2022-10-03T13:11:30;13.45;;;4.97;;
18822;SDS011;9540;51.550;7.980;2022-10-03T13:14:21;14.88;;;3.17;;
18822;SDS011;9540;51.550;7.980;2022-10-03T13:16:58;13.98;;;2.83;;
18822;SDS011;9540;51.550;7.980;2022-10-03T13:19:39;5.53;;;2.17;;
18822;SDS011;9540;51.550;7.980;2022-10-03T13:22:19;9.27;;;2.38;;
18822;SDS011;9540;51.550;7.980;2022-10-03T13:24:56;8.10;;;2.13;;
18822;SDS011;9540;51.550;7.980;2022-10-03T13:27:32;4.28;;;1.85;;
18822;SDS011;9540;51.550;7.980;2022-10-03T13:30:05;9.82;;;2.80;;
18822;SDS011;9540;51.550;7.980;2022-10-03T13:32:42;7.00;;;1.95;;
18822;SDS011;9540;51.550;7.980;2022-10-03T13:35:18;4.30;;;1.52;;
18822;SDS011;9540;51.550;7.980;2022-10-03T13:41:27;4.50;;;1.77;;
18822;SDS011;9540;51.550;7.980;2022-10-03T13:43:58;14.80;;;2.58;;
18822;SDS011;9540;51.550;7.980;2022-10-03T13:46:28;6.60;;;1.75;;
18822;SDS011;9540;51.550;7.980;2022-10-03T13:49:02;5.68;;;1.80;;
18822;SDS011;9540;51.550;7.980;2022-10-03T13:51:40;6.38;;;1.90;;
18822;SDS011;9540;51.550;7.980;2022-10-03T13:54:14;5.75;;;1.90;;
18822;SDS011;9540;51.550;7.980;2022-10-03T13:56:51;5.47;;;1.85;;
18822;SDS011;9540;51.550;7.980;2022-10-03T14:02:16;9.15;;;2.00;;
18822;SDS011;9540;51.550;7.980;2022-10-03T14:05:06;9.32;;;1.73;;
18822;SDS011;9540;51.550;7.980;2022-10-03T14:08:04;7.50;;;1.70;;
18822;SDS011;9540;51.550;7.980;2022-10-03T14:10:49;7.18;;;1.75;;
18822;SDS011;9540;51.550;7.980;2022-10-03T14:13:35;6.70;;;1.75;;
18822;SDS011;9540;51.550;7.980;2022-10-03T14:16:13;8.13;;;1.75;;
18822;SDS011;9540;51.550;7.980;2022-10-03T14:18:48;5.35;;;2.20;;
18822;SDS011;9540;51.550;7.980;2022-10-03T14:24:35;5.82;;;1.88;;
18822;SDS011;9540;51.550;7.980;2022-10-03T14:27:31;6.45;;;1.73;;
18822;SDS011;9540;51.550;7.980;2022-10-03T14:30:15;5.97;;;1.73;;
18822;SDS011;9540;51.550;7.980;2022-10-03T14:33:05;12.68;;;2.20;;
18822;SDS011;9540;51.550;7.980;2022-10-03T14:35:44;5.80;;;1.50;;
18822;SDS011;9540;51.550;7.980;2022-10-03T14:38:33;6.50;;;1.75;;
18822;SDS011;9540;51.550;7.980;2022-10-03T14:41:32;13.48;;;1.77;;
18822;SDS011;9540;51.550;7.980;2022-10-03T14:44:07;6.57;;;2.00;;
18822;SDS011;9540;51.550;7.980;2022-10-03T14:46:39;5.43;;;1.40;;
18822;SDS011;9540;51.550;7.980;2022-10-03T14:49:15;5.57;;;1.58;;
18822;SDS011;9540;51.550;7.980;2022-10-03T14:51:46;5.75;;;1.73;;
18822;SDS011;9540;51.550;7.980;2022-10-03T14:54:18;6.22;;;2.20;;
18822;SDS011;9540;51.550;7.980;2022-10-03T14:56:49;6.30;;;1.60;;
18822;SDS011;9540;51.550;7.980;2022-10-03T14:59:18;4.55;;;1.45;;
18822;SDS011;9540;51.550;7.980;2022-10-03T15:01:48;5.80;;;1.58;;
18822;SDS011;9540;51.550;7.980;2022-10-03T15:04:22;6.68;;;1.70;;
18822;SDS011;9540;51.550;7.980;2022-10-03T15:06:54;5.88;;;1.50;;
18822;SDS011;9540;51.550;7.980;2022-10-03T15:09:32;4.90;;;1.60;;
18822;SDS011;9540;51.550;7.980;2022-10-03T15:12:09;8.73;;;1.95;;
18822;SDS011;9540;51.550;7.980;2022-10-03T15:14:42;3.85;;;1.50;;
18822;SDS011;9540;51.550;7.980;2022-10-03T15:17:16;5.65;;;2.08;;
18822;SDS011;9540;51.550;7.980;2022-10-03T15:19:47;8.60;;;1.60;;
18822;SDS011;9540;51.550;7.980;2022-10-03T15:22:21;3.22;;;1.58;;
18822;SDS011;9540;51.550;7.980;2022-10-03T15:24:54;6.10;;;1.60;;
18822;SDS011;9540;51.550;7.980;2022-10-03T15:27:27;7.60;;;1.30;;
18822;SDS011;9540;51.550;7.980;2022-10-03T15:29:56;4.75;;;1.60;;
18822;SDS011;9540;51.550;7.980;2022-10-03T15:32:26;5.25;;;1.33;;
18822;SDS011;9540;51.550;7.980;2022-10-03T15:34:58;6.10;;;1.52;;
18822;SDS011;9540;51.550;7.980;2022-10-03T15:37:28;7.95;;;1.30;;
18822;SDS011;9540;51.550;7.980;2022-10-03T15:40:01;5.93;;;1.77;;
18822;SDS011;9540;51.550;7.980;2022-10-03T15:42:42;2.22;;;1.08;;
18822;SDS011;9540;51.550;7.980;2022-10-03T15:45:16;7.28;;;2.08;;
18822;SDS011;9540;51.550;7.980;2022-10-03T15:47:47;5.63;;;1.67;;
18822;SDS011;9540;51.550;7.980;2022-10-03T15:50:16;6.15;;;1.65;;
18822;SDS011;9540;51.550;7.980;2022-10-03T15:52:48;2.70;;;1.30;;
18822;SDS011;9540;51.550;7.980;2022-10-03T15:55:18;2.92;;;1.30;;
18822;SDS011;9540;51.550;7.980;2022-10-03T15:57:51;4.75;;;1.63;;
18822;SDS011;9540;51.550;7.980;2022-10-03T16:00:25;8.10;;;1.80;;
18822;SDS011;9540;51.550;7.980;2022-10-03T16:02:56;5.13;;;1.30;;
18822;SDS011;9540;51.550;7.980;2022-10-03T16:05:33;3.08;;;1.20;;
18822;SDS011;9540;51.550;7.980;2022-10-03T16:08:03;6.95;;;1.45;;
18822;SDS011;9540;51.550;7.980;2022-10-03T16:10:35;6.82;;;1.75;;
18822;SDS011;9540;51.550;7.980;2022-10-03T16:13:08;3.92;;;1.20;;
18822;SDS011;9540;51.550;7.980;2022-10-03T16:15:52;6.63;;;1.90;;
18822;SDS011;9540;51.550;7.980;2022-10-03T16:21:46;8.43;;;1.75;;
18822;SDS011;9540;51.550;7.980;2022-10-03T16:24:20;5.97;;;2.22;;
18822;SDS011;9540;51.550;7.980;2022-10-03T16:26:54;4.70;;;2.33;;
18822;SDS011;9540;51.550;7.980;2022-10-03T16:29:29;9.80;;;2.90;;
18822;SDS011;9540;51.550;7.980;2022-10-03T16:32:01;5.15;;;2.05;;
18822;SDS011;9540;51.550;7.980;2022-10-03T16:34:31;7.22;;;2.10;;
18822;SDS011;9540;51.550;7.980;2022-10-03T16:37:00;3.53;;;1.52;;
18822;SDS011;9540;51.550;7.980;2022-10-03T16:39:31;6.50;;;1.75;;
18822;SDS011;9540;51.550;7.980;2022-10-03T16:42:02;7.57;;;2.20;;
18822;SDS011;9540;51.550;7.980;2022-10-03T16:44:39;8.73;;;2.50;;
18822;SDS011;9540;51.550;7.980;2022-10-03T16:47:15;8.27;;;1.83;;
18822;SDS011;9540;51.550;7.980;2022-10-03T16:49:45;6.80;;;2.03;;
18822;SDS011;9540;51.550;7.980;2022-10-03T16:52:37;6.60;;;2.22;;
18822;SDS011;9540;51.550;7.980;2022-10-03T16:55:06;6.97;;;2.17;;
18822;SDS011;9540;51.550;7.980;2022-10-03T16:57:40;4.15;;;1.50;;
18822;SDS011;9540;51.550;7.980;2022-10-03T17:00:14;8.57;;;2.28;;
18822;SDS011;9540;51.550;7.980;2022-10-03T17:02:46;7.13;;;1.65;;
18822;SDS011;9540;51.550;7.980;2022-10-03T17:05:14;6.05;;;1.83;;
18822;SDS011;9540;51.550;7.980;2022-10-03T17:07:43;7.60;;;2.05;;
18822;SDS011;9540;51.550;7.980;2022-10-03T17:10:26;10.43;;;2.35;;
18822;SDS011;9540;51.550;7.980;2022-10-03T17:12:58;7.70;;;2.20;;
18822;SDS011;9540;51.550;7.980;2022-10-03T17:15:29;7.68;;;2.20;;
18822;SDS011;9540;51.550;7.980;2022-10-03T17:18:03;5.07;;;2.63;;
18822;SDS011;9540;51.550;7.980;2022-10-03T17:20:41;6.75;;;2.10;;
18822;SDS011;9540;51.550;7.980;2022-10-03T17:23:15;6.57;;;2.70;;
18822;SDS011;9540;51.550;7.980;2022-10-03T17:25:54;4.85;;;1.73;;
18822;SDS011;9540;51.550;7.980;2022-10-03T17:28:31;5.35;;;2.00;;
18822;SDS011;9540;51.550;7.980;2022-10-03T17:31:04;4.60;;;2.00;;
18822;SDS011;9540;51.550;7.980;2022-10-03T17:33:42;5.65;;;1.85;;
18822;SDS011;9540;51.550;7.980;2022-10-03T17:39:18;7.38;;;2.60;;
18822;SDS011;9540;51.550;7.980;2022-10-03T17:41:57;7.40;;;2.03;;
18822;SDS011;9540;51.550;7.980;2022-10-03T17:44:32;4.13;;;2.00;;
18822;SDS011;9540;51.550;7.980;2022-10-03T17:47:09;5.53;;;2.35;;
18822;SDS011;9540;51.550;7.980;2022-10-03T17:49:43;3.63;;;2.08;;
18822;SDS011;9540;51.550;7.980;2022-10-03T17:52:20;4.75;;;1.95;;
18822;SDS011;9540;51.550;7.980;2022-10-03T17:54:50;14.07;;;2.90;;
18822;SDS011;9540;51.550;7.980;2022-10-03T17:57:21;9.18;;;2.80;;
18822;SDS011;9540;51.550;7.980;2022-10-03T17:59:56;5.53;;;2.47;;
18822;SDS011;9540;51.550;7.980;2022-10-03T18:02:31;6.72;;;3.05;;
18822;SDS011;9540;51.550;7.980;2022-10-03T18:05:05;5.60;;;2.80;;
18822;SDS011;9540;51.550;7.980;2022-10-03T18:07:38;3.47;;;2.58;;
18822;SDS011;9540;51.550;7.980;2022-10-03T18:10:14;3.45;;;2.42;;
18822;SDS011;9540;51.550;7.980;2022-10-03T18:12:45;6.35;;;3.60;;
18822;SDS011;9540;51.550;7.980;2022-10-03T18:15:28;8.60;;;3.95;;
18822;SDS011;9540;51.550;7.980;2022-10-03T18:21:12;7.25;;;3.60;;
18822;SDS011;9540;51.550;7.980;2022-10-03T18:23:49;9.27;;;4.22;;
18822;SDS011;9540;51.550;7.980;2022-10-03T18:26:28;11.90;;;5.25;;
18822;SDS011;9540;51.550;7.980;2022-10-03T18:29:02;11.27;;;5.50;;
18822;SDS011;9540;51.550;7.980;2022-10-03T18:31:42;10.88;;;4.88;;
18822;SDS011;9540;51.550;7.980;2022-10-03T18:34:15;12.13;;;4.90;;
18822;SDS011;9540;51.550;7.980;2022-10-03T18:36:46;9.10;;;5.15;;
18822;SDS011;9540;51.550;7.980;2022-10-03T18:39:17;8.93;;;4.72;;
18822;SDS011;9540;51.550;7.980;2022-10-03T18:41:48;15.10;;;4.85;;
18822;SDS011;9540;51.550;7.980;2022-10-03T18:44:18;13.48;;;5.10;;
18822;SDS011;9540;51.550;7.980;2022-10-03T18:46:49;6.60;;;4.53;;
18822;SDS011;9540;51.550;7.980;2022-10-03T18:49:23;7.85;;;4.00;;
18822;SDS011;9540;51.550;7.980;2022-10-03T18:51:54;9.38;;;4.63;;
18822;SDS011;9540;51.550;7.980;2022-10-03T18:54:29;10.57;;;4.32;;
18822;SDS011;9540;51.550;7.980;2022-10-03T18:57:06;12.38;;;5.15;;